»·PEaware :: N172TT KVNY-KSNA

N172TT :: KVNY-KSNA

FLIGHT INFORMATION

Flight Status: Arrived
Operator: Privately registered:
United States
More flights under this callsign
Pilot: Thomas T. (19955)
Aircraft: CESSNA 172 SKYHAWK
(C172)
More flights by this aircraft type
Origin: KVNY Van Nuys
United States
Destination: KSNA John Wayne-Orange Co
United States
More flights between these airports :: More routes between these airports
Route: +
File this flight plan on PilotEdge
Remarks:
Altitude:
(Current/Filed)
5,500ft
Speed:
(Current/Filed)
0kts
Departed: 27-Aug-18 12:19 PM
Arrived: 27-Aug-18 12:54 PM
Distance/Time
Traveled:
26nm/0:34
Distance/Time
To Go:
Arrived

Flight Plot

Page will automatically refresh every two minutes.


Map Options




Map Legend


Flown Route
Filed Route
Departure Airport
Arrival Airport
Navaid (VOR, NDB)
Fix

Horizontal Profiles

Position Reports

Time Latitude Longitude Heading Altitude Ground
Speed
27-Aug-18 12:09 34.209407 -118.491822 84 806ft 0kts
27-Aug-18 12:10 34.209407 -118.491822 84 806ft 0kts
27-Aug-18 12:11 34.210696 -118.491635 355 806ft 13kts
27-Aug-18 12:12 34.216371 -118.492240 354 806ft 21kts
27-Aug-18 12:13 34.219268 -118.492259 119 806ft 0kts
27-Aug-18 12:14 34.219268 -118.492259 119 806ft 0kts
27-Aug-18 12:15 34.219268 -118.492259 119 806ft 0kts
27-Aug-18 12:16 34.219268 -118.492259 119 806ft 0kts
27-Aug-18 12:17 34.219268 -118.492259 119 806ft 0kts
27-Aug-18 12:18 34.219268 -118.492259 119 806ft 0kts
27-Aug-18 12:19 34.218538 -118.491262 157 806ft 10kts
27-Aug-18 12:20 34.202845 -118.489466 172 1157ft 86kts
27-Aug-18 12:21 34.179290 -118.486005 182 1899ft 83kts
27-Aug-18 12:22 34.171301 -118.508067 266 2674ft 78kts
27-Aug-18 12:23 34.158826 -118.518155 156 3478ft 69kts
27-Aug-18 12:24 34.141637 -118.512744 172 4259ft 56kts
27-Aug-18 12:25 34.120615 -118.509345 172 4747ft 91kts
27-Aug-18 12:26 34.095828 -118.501363 161 5391ft 94kts
27-Aug-18 12:27 34.066135 -118.490006 162 5462ft 113kts
27-Aug-18 12:28 34.035921 -118.478388 161 5476ft 116kts
27-Aug-18 12:29 34.006060 -118.465093 154 5475ft 113kts
27-Aug-18 12:30 33.977508 -118.448776 157 5475ft 113kts
27-Aug-18 12:31 33.948180 -118.434745 158 5475ft 113kts
27-Aug-18 12:32 33.920788 -118.416675 142 5475ft 113kts
27-Aug-18 12:33 33.897234 -118.392733 139 5475ft 113kts
27-Aug-18 12:34 33.873041 -118.368372 141 5475ft 113kts
27-Aug-18 12:35 33.848355 -118.344617 141 5474ft 113kts
27-Aug-18 12:36 33.823929 -118.321115 141 5474ft 112kts
27-Aug-18 12:37 33.799571 -118.297676 141 5473ft 112kts
27-Aug-18 12:38 33.775274 -118.274300 141 5473ft 112kts
27-Aug-18 12:39 33.751455 -118.250196 139 5473ft 112kts
27-Aug-18 12:40 33.727744 -118.225704 139 5330ft 116kts
27-Aug-18 12:41 33.717492 -118.191016 86 4828ft 115kts
27-Aug-18 12:42 33.719388 -118.151839 87 4135ft 116kts
27-Aug-18 12:43 33.722280 -118.114220 79 3335ft 112kts
27-Aug-18 12:44 33.726966 -118.077392 84 2538ft 112kts
27-Aug-18 12:45 33.728603 -118.041623 87 2013ft 93kts
27-Aug-18 12:46 33.728707 -118.015471 90 1994ft 68kts
27-Aug-18 12:47 33.728389 -117.987754 90 2010ft 96kts
27-Aug-18 12:48 33.727889 -117.954320 90 2013ft 102kts
27-Aug-18 12:49 33.712982 -117.928112 150 1899ft 110kts
27-Aug-18 12:50 33.689767 -117.906310 113 1596ft 107kts
27-Aug-18 12:51 33.703803 -117.881390 32 1551ft 94kts
27-Aug-18 12:52 33.715272 -117.861658 113 1534ft 75kts
27-Aug-18 12:53 33.698542 -117.854661 198 853ft 64kts
27-Aug-18 12:54 33.683069 -117.864088 207 121ft 61kts
27-Aug-18 12:55 33.678084 -117.868273 289 60ft 0kts
27-Aug-18 12:56 33.678710 -117.868790 204 60ft 0kts
27-Aug-18 12:57 33.801601 -118.341420 218 105ft 0kts
27-Aug-18 12:58 33.801601 -118.341420 218 105ft 0kts
27-Aug-18 12:59 33.801601 -118.341420 218 105ft 0kts
27-Aug-18 13:00 33.801601 -118.341420 218 105ft 0kts
27-Aug-18 13:01 33.801601 -118.341420 218 105ft 0kts
27-Aug-18 13:02 33.801601 -118.341420 218 105ft 0kts
27-Aug-18 13:03 33.801601 -118.341420 218 105ft 0kts
27-Aug-18 13:04 33.801601 -118.341420 218 105ft 0kts
27-Aug-18 13:05 33.801601 -118.341420 218 105ft 0kts
27-Aug-18 13:06 33.801601 -118.341420 218 105ft 0kts
27-Aug-18 13:07 33.801601 -118.341420 218 105ft 0kts
27-Aug-18 13:08 33.801601 -118.341420 218 105ft 0kts
27-Aug-18 13:09 33.801601 -118.341420 218 105ft 0kts

Navigation Log

Ident Type
1. KVNY Airport
2. KSNA Airport